Time;durP1;ratioP1;P1;durP2;ratioP2;P2;SDS_P1;SDS_P2;PMS_P1;PMS_P2;Temp;Humidity;BMP_temperature;BMP_pressure;BME280_temperature;BME280_humidity;BME280_pressure;Samples;Min_cycle;Max_cycle;Signal;HPM_P1;HPM_P2
2022/12/16 00:02:13;;;;;;;72.80;27.88;;;;;;;0.14;67.12;97921.00;5124848;29;20535;-72
2022/12/16 00:05:03;;;;;;;79.40;28.50;;;;;;;-0.54;69.24;97929.88;5124463;29;20058;-72
2022/12/16 00:07:54;;;;;;;75.10;27.88;;;;;;;0.03;68.36;97928.69;5119687;29;20533;-72
2022/12/16 00:10:53;;;;;;;71.47;25.10;;;;;;;0.06;66.26;97936.31;5090374;29;20119;-73
2022/12/16 00:13:44;;;;;;;76.38;26.77;;;;;;;0.21;66.71;97935.28;5105537;29;20058;-71
2022/12/16 00:16:34;;;;;;;75.18;26.27;;;;;;;0.15;66.88;97938.31;5102739;29;20054;-70
2022/12/16 00:19:24;;;;;;;59.78;25.58;;;;;;;-0.01;66.52;97928.91;5089878;29;20114;-70
2022/12/16 00:22:14;;;;;;;65.18;25.95;;;;;;;-0.24;67.04;97914.81;5104671;29;20427;-71
2022/12/16 00:25:04;;;;;;;66.20;25.55;;;;;;;-0.33;67.62;97922.41;5091109;29;20063;-72
2022/12/16 00:27:54;;;;;;;75.13;27.40;;;;;;;0.10;67.37;97925.59;5113958;29;20126;-72
2022/12/16 00:30:51;;;;;;;70.90;27.70;;;;;;;0.09;67.40;97923.06;5104600;29;20066;-71
2022/12/16 00:33:44;;;;;;;73.05;25.52;;;;;;;0.15;65.97;97920.06;5089406;29;20095;-71
2022/12/16 00:36:34;;;;;;;74.82;26.23;;;;;;;0.13;67.73;97927.13;5117500;29;20066;-70
2022/12/16 00:39:24;;;;;;;65.20;25.33;;;;;;;-0.03;67.55;97928.19;5124023;29;20106;-72
2022/12/16 00:42:14;;;;;;;75.65;27.85;;;;;;;0.12;67.74;97930.69;5123981;29;20102;-72
2022/12/16 00:45:04;;;;;;;73.45;28.17;;;;;;;0.10;67.78;97937.75;5121409;29;20516;-73
2022/12/16 00:47:54;;;;;;;66.93;25.90;;;;;;;-0.24;68.14;97935.66;5104194;29;20059;-70
2022/12/16 00:50:50;;;;;;;71.95;26.23;;;;;;;-0.21;67.92;97944.22;5090063;29;20092;-71
2022/12/16 00:53:40;;;;;;;73.75;27.23;;;;;;;-0.41;68.69;97948.16;5090180;29;20153;-73
2022/12/16 00:56:30;;;;;;;72.38;24.95;;;;;;;-0.31;69.42;97946.59;5102127;29;20506;-73
2022/12/16 00:59:20;;;;;;;73.07;26.35;;;;;;;-0.30;69.37;97959.53;5118985;29;20051;-73
2022/12/16 01:02:10;;;;;;;67.68;25.15;;;;;;;-0.28;68.62;97962.03;5121187;29;20099;-74
2022/12/16 01:05:01;;;;;;;72.60;27.45;;;;;;;-0.05;69.33;97971.75;5123311;29;20382;-71
2022/12/16 01:07:53;;;;;;;78.82;27.38;;;;;;;0.19;67.77;97971.03;5105984;29;20199;-73
2022/12/16 01:10:49;;;;;;;83.85;28.48;;;;;;;0.11;68.96;97962.91;5112391;28;20110;-73
2022/12/16 01:13:39;;;;;;;75.85;27.33;;;;;;;-0.23;68.89;97939.13;5123673;29;20521;-71
2022/12/16 01:16:29;;;;;;;79.97;28.75;;;;;;;0.12;69.09;97975.00;5123516;29;20062;-74
2022/12/16 01:19:20;;;;;;;70.57;26.73;;;;;;;0.01;69.15;97969.69;5122009;29;20070;-72
2022/12/16 01:22:10;;;;;;;74.70;28.27;;;;;;;0.10;69.20;97972.50;5123091;29;20149;-71
2022/12/16 01:25:01;;;;;;;76.95;29.23;;;;;;;0.10;69.77;97976.84;5123550;29;20573;-71
2022/12/16 01:27:51;;;;;;;81.55;28.35;;;;;;;0.21;68.74;97987.41;5108342;29;20054;-73
2022/12/16 01:30:41;;;;;;;85.13;29.77;;;;;;;-0.05;69.01;97987.38;5122065;29;20130;-70
2022/12/16 01:33:31;;;;;;;74.88;28.10;;;;;;;-0.38;71.19;97984.41;5123526;29;20052;-71
2022/12/16 01:36:23;;;;;;;77.82;29.15;;;;;;;0.00;70.34;97987.09;5123393;29;20051;-71
2022/12/16 01:39:12;;;;;;;77.57;29.83;;;;;;;-0.02;69.87;97981.16;5104079;29;20429;-70
2022/12/16 01:42:03;;;;;;;73.47;28.67;;;;;;;-0.19;69.48;97982.28;5122972;29;20130;-70
2022/12/16 01:44:53;;;;;;;78.75;27.63;;;;;;;0.03;68.77;97979.03;5123323;28;20053;-70
2022/12/16 01:47:44;;;;;;;80.05;28.27;;;;;;;-0.31;69.78;97977.84;5123023;29;20150;-73
2022/12/16 01:50:34;;;;;;;83.95;31.02;;;;;;;-0.26;69.72;97987.03;5103175;29;20471;-73
2022/12/16 01:53:24;;;;;;;68.90;28.85;;;;;;;-0.12;70.07;97987.91;5088871;29;20423;-73
2022/12/16 01:56:18;;;;;;;75.85;29.00;;;;;;;-0.35;69.70;97998.06;5088299;29;20054;-73
2022/12/16 01:59:10;;;;;;;74.18;27.42;;;;;;;-0.49;70.52;97995.53;5113336;29;20051;-70
2022/12/16 02:02:02;;;;;;;74.53;28.00;;;;;;;-0.74;71.26;97991.03;5108223;29;20061;-73
2022/12/16 02:08:08;;;;;;;75.75;28.60;;;;;;;-0.84;72.02;98006.41;5122015;29;20062;-73
2022/12/16 02:11:07;;;;;;;83.00;29.10;;;;;;;-0.65;71.72;97995.66;5122199;29;20065;-71
2022/12/16 02:14:20;;;;;;;79.22;29.60;;;;;;;0.10;69.29;98016.81;5122433;29;20054;-72
2022/12/16 02:17:42;;;;;;;76.72;28.65;;;;;;;-0.34;70.32;98027.53;5107382;29;20051;-73
2022/12/16 02:20:53;;;;;;;75.43;27.85;;;;;;;-0.38;70.18;98018.25;5102698;29;20074;-70
2022/12/16 02:24:15;;;;;;;74.35;28.52;;;;;;;-0.03;70.03;98024.63;5102573;29;20048;-72
2022/12/16 02:27:08;;;;;;;73.13;27.88;;;;;;;-0.16;70.25;98013.34;5102480;29;20055;-71
2022/12/16 02:30:26;;;;;;;77.00;27.65;;;;;;;0.05;68.97;98021.50;5104614;29;20139;-70
2022/12/16 02:33:41;;;;;;;68.30;27.67;;;;;;;0.05;68.57;98026.69;5088085;29;20071;-70
2022/12/16 02:36:41;;;;;;;67.95;25.80;;;;;;;-0.63;73.27;98006.84;5102442;29;20055;-70
2022/12/16 02:39:31;;;;;;;73.45;28.08;;;;;;;-0.09;69.78;98022.41;5109808;29;20062;-70
2022/12/16 02:42:38;;;;;;;78.43;27.48;;;;;;;-0.20;69.43;98022.25;5088273;29;20517;-70
2022/12/16 02:45:30;;;;;;;70.75;27.42;;;;;;;-0.28;71.07;98014.13;5102320;29;20078;-72
2022/12/16 02:48:20;;;;;;;69.35;27.27;;;;;;;0.13;69.49;98015.75;5105148;29;20054;-72
2022/12/16 02:51:10;;;;;;;73.15;27.58;;;;;;;0.11;69.63;98010.66;5106916;29;20421;-72
2022/12/16 02:54:01;;;;;;;70.63;27.52;;;;;;;0.25;69.58;98021.94;5122127;29;20422;-72
2022/12/16 02:57:06;;;;;;;66.57;25.98;;;;;;;0.08;69.75;98025.66;5123555;28;20062;-70
2022/12/16 03:00:04;;;;;;;68.78;25.98;;;;;;;0.18;69.64;98022.34;5125840;29;20058;-71
2022/12/16 03:03:01;;;;;;;59.60;23.13;;;;;;;-0.12;69.54;98019.16;5112199;29;20055;-71
2022/12/16 03:05:53;;;;;;;71.20;27.23;;;;;;;0.06;68.95;98020.53;5111750;29;20069;-70
2022/12/16 03:08:50;;;;;;;65.97;24.75;;;;;;;-0.08;68.46;97999.78;5121347;29;20106;-72
2022/12/16 03:11:43;;;;;;;64.22;23.67;;;;;;;0.10;68.79;98040.28;5124915;29;20065;-70
2022/12/16 03:14:35;;;;;;;63.03;24.37;;;;;;;0.17;67.40;98036.31;5111501;29;20050;-70
2022/12/16 03:17:27;;;;;;;61.38;22.38;;;;;;;-0.02;68.21;98033.25;5125288;29;20159;-69
2022/12/16 03:20:25;;;;;;;57.88;22.90;;;;;;;-0.04;68.25;98046.38;5105698;29;20074;-71
2022/12/16 03:23:21;;;;;;;53.30;22.75;;;;;;;-0.15;68.96;98056.69;5105876;29;20187;-72
2022/12/16 03:26:18;;;;;;;59.42;23.77;;;;;;;-0.20;68.83;98052.69;5106033;29;20060;-70
2022/12/16 03:29:38;;;;;;;66.70;24.27;;;;;;;0.09;68.26;98049.00;5117199;29;20055;-72
2022/12/16 03:32:55;;;;;;;60.72;23.45;;;;;;;0.11;68.01;98054.16;5114645;29;20132;-70
2022/12/16 03:35:53;;;;;;;59.15;22.50;;;;;;;0.18;67.46;98053.63;5125774;29;20070;-70
2022/12/16 03:38:45;;;;;;;60.83;22.45;;;;;;;-0.12;68.99;98066.91;5125029;29;20055;-72
2022/12/16 03:41:35;;;;;;;63.50;22.33;;;;;;;0.00;68.24;98054.84;5125046;29;20099;-72
2022/12/16 03:44:26;;;;;;;51.88;22.02;;;;;;;-0.49;70.45;98037.19;5125486;29;20055;-71
2022/12/16 03:47:16;;;;;;;56.35;22.67;;;;;;;-0.04;69.06;98075.03;5125337;29;20420;-71
2022/12/16 03:50:13;;;;;;;55.78;22.02;;;;;;;0.03;69.27;98079.84;5119743;29;20049;-72
2022/12/16 03:53:04;;;;;;;56.53;22.27;;;;;;;0.04;69.00;98078.94;5110677;29;20051;-70
2022/12/16 03:55:55;;;;;;;60.38;23.33;;;;;;;-0.06;68.95;98070.88;5111377;29;20696;-69
2022/12/16 03:58:45;;;;;;;61.88;23.63;;;;;;;0.16;68.34;98075.50;5124344;29;20059;-68
2022/12/16 04:01:36;;;;;;;67.05;22.90;;;;;;;0.07;68.30;98086.56;5129610;28;20121;-69
2022/12/16 04:04:31;;;;;;;57.83;24.17;;;;;;;-0.08;69.17;98086.59;5098257;29;20115;-68
2022/12/16 04:07:24;;;;;;;55.70;22.10;;;;;;;-0.04;69.33;98082.84;5112167;28;20055;-69
2022/12/16 04:10:15;;;;;;;54.10;22.02;;;;;;;0.05;68.63;98088.44;5108589;29;20145;-69
2022/12/16 04:25:51;;;;;;;53.78;21.55;;;;;;;0.11;67.43;98103.66;5123870;29;20051;-70
2022/12/16 04:28:41;;;;;;;54.70;21.08;;;;;;;0.05;67.80;98106.66;5124012;29;20472;-70
2022/12/16 04:31:32;;;;;;;54.75;20.88;;;;;;;0.16;66.89;98086.75;5107884;29;20433;-69
2022/12/16 04:34:26;;;;;;;59.92;21.95;;;;;;;0.20;67.91;98108.28;5124162;29;20140;-70
